sensor_id;sensor_type;location;lat;lon;timestamp;temperature;humidity
36244;DHT22;22284;49.956;19.816;2022-09-17T00:00:03;12.42;78.50
36244;DHT22;22284;49.956;19.816;2022-09-17T00:03:07;12.41;78.46
36244;DHT22;22284;49.956;19.816;2022-09-17T00:06:11;12.42;78.46
36244;DHT22;22284;49.956;19.816;2022-09-17T00:09:13;12.42;78.45
36244;DHT22;22284;49.956;19.816;2022-09-17T00:12:15;12.43;78.31
36244;DHT22;22284;49.956;19.816;2022-09-17T00:15:16;12.43;78.17
36244;DHT22;22284;49.956;19.816;2022-09-17T00:18:18;12.42;78.08
36244;DHT22;22284;49.956;19.816;2022-09-17T00:21:20;12.43;78.10
36244;DHT22;22284;49.956;19.816;2022-09-17T00:24:21;12.41;77.92
36244;DHT22;22284;49.956;19.816;2022-09-17T00:27:22;12.36;77.77
36244;DHT22;22284;49.956;19.816;2022-09-17T00:30:23;12.36;77.74
36244;DHT22;22284;49.956;19.816;2022-09-17T00:33:24;12.29;77.71
36244;DHT22;22284;49.956;19.816;2022-09-17T00:36:26;12.27;77.63
36244;DHT22;22284;49.956;19.816;2022-09-17T00:39:27;12.24;77.60
36244;DHT22;22284;49.956;19.816;2022-09-17T00:42:28;12.21;77.58
36244;DHT22;22284;49.956;19.816;2022-09-17T00:45:30;12.18;77.67
36244;DHT22;22284;49.956;19.816;2022-09-17T00:48:32;12.13;77.65
36244;DHT22;22284;49.956;19.816;2022-09-17T00:51:36;12.07;77.75
36244;DHT22;22284;49.956;19.816;2022-09-17T00:54:41;12.01;77.83
36244;DHT22;22284;49.956;19.816;2022-09-17T00:57:44;11.98;77.82
36244;DHT22;22284;49.956;19.816;2022-09-17T01:00:45;11.96;77.87
36244;DHT22;22284;49.956;19.816;2022-09-17T01:03:47;11.90;77.92
36244;DHT22;22284;49.956;19.816;2022-09-17T01:21:19;11.66;77.54
36244;DHT22;22284;49.956;19.816;2022-09-17T01:24:58;11.62;77.56
36244;DHT22;22284;49.956;19.816;2022-09-17T01:28:17;11.55;77.48
36244;DHT22;22284;49.956;19.816;2022-09-17T01:31:35;11.48;77.49
36244;DHT22;22284;49.956;19.816;2022-09-17T01:38:23;11.35;77.57
36244;DHT22;22284;49.956;19.816;2022-09-17T01:45:11;11.22;77.66
36244;DHT22;22284;49.956;19.816;2022-09-17T01:48:22;11.15;77.69
36244;DHT22;22284;49.956;19.816;2022-09-17T01:51:26;11.07;77.70
36244;DHT22;22284;49.956;19.816;2022-09-17T01:54:36;11.03;77.70
36244;DHT22;22284;49.956;19.816;2022-09-17T01:57:43;10.98;77.78
36244;DHT22;22284;49.956;19.816;2022-09-17T02:00:49;10.96;77.83
36244;DHT22;22284;49.956;19.816;2022-09-17T02:04:05;10.93;77.85
36244;DHT22;22284;49.956;19.816;2022-09-17T02:07:07;10.89;77.92
36244;DHT22;22284;49.956;19.816;2022-09-17T02:10:19;10.90;77.81
36244;DHT22;22284;49.956;19.816;2022-09-17T02:13:34;10.87;77.74
36244;DHT22;22284;49.956;19.816;2022-09-17T02:16:38;10.84;77.74
36244;DHT22;22284;49.956;19.816;2022-09-17T02:19:42;10.82;77.74
36244;DHT22;22284;49.956;19.816;2022-09-17T02:22:58;10.82;77.83
36244;DHT22;22284;49.956;19.816;2022-09-17T02:26:02;10.76;77.76
36244;DHT22;22284;49.956;19.816;2022-09-17T02:29:07;10.72;77.84
36244;DHT22;22284;49.956;19.816;2022-09-17T02:32:11;10.68;77.94
36244;DHT22;22284;49.956;19.816;2022-09-17T02:35:13;10.63;78.04
36244;DHT22;22284;49.956;19.816;2022-09-17T02:38:24;10.62;78.09
36244;DHT22;22284;49.956;19.816;2022-09-17T02:41:35;10.58;78.10
36244;DHT22;22284;49.956;19.816;2022-09-17T02:45:06;10.55;78.15
36244;DHT22;22284;49.956;19.816;2022-09-17T02:55:44;10.52;78.18
36244;DHT22;22284;49.956;19.816;2022-09-17T02:59:10;10.56;78.14
36244;DHT22;22284;49.956;19.816;2022-09-17T03:02:27;10.55;78.20
36244;DHT22;22284;49.956;19.816;2022-09-17T03:05:28;10.52;78.16
36244;DHT22;22284;49.956;19.816;2022-09-17T03:08:39;10.53;78.17
36244;DHT22;22284;49.956;19.816;2022-09-17T03:11:40;10.51;78.13
36244;DHT22;22284;49.956;19.816;2022-09-17T03:14:42;10.49;78.18
36244;DHT22;22284;49.956;19.816;2022-09-17T03:17:43;10.49;78.24
36244;DHT22;22284;49.956;19.816;2022-09-17T03:20:44;10.48;78.29
36244;DHT22;22284;49.956;19.816;2022-09-17T03:23:46;10.51;78.48
36244;DHT22;22284;49.956;19.816;2022-09-17T03:26:47;10.49;78.58
36244;DHT22;22284;49.956;19.816;2022-09-17T03:29:49;10.46;78.43
36244;DHT22;22284;49.956;19.816;2022-09-17T03:32:50;10.39;78.46
36244;DHT22;22284;49.956;19.816;2022-09-17T03:35:51;10.37;78.49
36244;DHT22;22284;49.956;19.816;2022-09-17T03:38:56;10.32;78.46
36244;DHT22;22284;49.956;19.816;2022-09-17T03:41:57;10.31;78.52
36244;DHT22;22284;49.956;19.816;2022-09-17T03:44:58;10.29;78.61
36244;DHT22;22284;49.956;19.816;2022-09-17T03:47:59;10.24;78.44
36244;DHT22;22284;49.956;19.816;2022-09-17T03:51:00;10.17;78.41
36244;DHT22;22284;49.956;19.816;2022-09-17T03:54:02;10.16;78.46
36244;DHT22;22284;49.956;19.816;2022-09-17T03:57:03;10.16;78.44
36244;DHT22;22284;49.956;19.816;2022-09-17T04:00:06;10.13;78.38
36244;DHT22;22284;49.956;19.816;2022-09-17T04:03:07;10.16;78.30
36244;DHT22;22284;49.956;19.816;2022-09-17T04:06:09;10.14;78.24
36244;DHT22;22284;49.956;19.816;2022-09-17T04:09:10;10.10;78.19
36244;DHT22;22284;49.956;19.816;2022-09-17T04:12:11;10.11;78.20
36244;DHT22;22284;49.956;19.816;2022-09-17T04:15:12;10.11;78.20
36244;DHT22;22284;49.956;19.816;2022-09-17T04:18:14;10.09;78.18
36244;DHT22;22284;49.956;19.816;2022-09-17T04:21:15;10.06;78.21
36244;DHT22;22284;49.956;19.816;2022-09-17T04:24:17;10.04;78.06
36244;DHT22;22284;49.956;19.816;2022-09-17T04:27:18;10.03;77.96
36244;DHT22;22284;49.956;19.816;2022-09-17T04:30:19;10.04;78.00
36244;DHT22;22284;49.956;19.816;2022-09-17T04:33:20;9.97;77.99
36244;DHT22;22284;49.956;19.816;2022-09-17T04:36:21;9.90;77.99
36244;DHT22;22284;49.956;19.816;2022-09-17T04:39:22;9.88;78.12
36244;DHT22;22284;49.956;19.816;2022-09-17T04:42:23;9.83;78.01
36244;DHT22;22284;49.956;19.816;2022-09-17T04:45:25;9.76;78.12
36244;DHT22;22284;49.956;19.816;2022-09-17T04:48:26;9.72;78.18
36244;DHT22;22284;49.956;19.816;2022-09-17T04:51:27;9.75;78.30
36244;DHT22;22284;49.956;19.816;2022-09-17T04:54:28;9.73;78.29
36244;DHT22;22284;49.956;19.816;2022-09-17T04:57:29;9.75;78.32
36244;DHT22;22284;49.956;19.816;2022-09-17T05:00:30;9.79;78.35
36244;DHT22;22284;49.956;19.816;2022-09-17T05:03:31;9.81;78.45
36244;DHT22;22284;49.956;19.816;2022-09-17T05:06:32;9.83;78.49
36244;DHT22;22284;49.956;19.816;2022-09-17T05:09:33;9.83;78.54
36244;DHT22;22284;49.956;19.816;2022-09-17T05:12:34;9.88;78.57
36244;DHT22;22284;49.956;19.816;2022-09-17T05:15:35;9.94;78.65
36244;DHT22;22284;49.956;19.816;2022-09-17T05:18:36;9.96;78.65
36244;DHT22;22284;49.956;19.816;2022-09-17T05:21:37;10.03;78.77
36244;DHT22;22284;49.956;19.816;2022-09-17T05:24:38;10.09;78.87
36244;DHT22;22284;49.956;19.816;2022-09-17T05:27:40;10.14;78.89
36244;DHT22;22284;49.956;19.816;2022-09-17T05:30:41;10.18;78.88
36244;DHT22;22284;49.956;19.816;2022-09-17T05:33:42;10.25;78.95
36244;DHT22;22284;49.956;19.816;2022-09-17T05:36:43;10.29;79.09
36244;DHT22;22284;49.956;19.816;2022-09-17T05:39:45;10.35;79.09
36244;DHT22;22284;49.956;19.816;2022-09-17T05:42:46;10.45;79.20
36244;DHT22;22284;49.956;19.816;2022-09-17T05:45:47;10.52;79.23
36244;DHT22;22284;49.956;19.816;2022-09-17T05:48:48;10.61;79.37
36244;DHT22;22284;49.956;19.816;2022-09-17T05:51:50;10.73;79.55
36244;DHT22;22284;49.956;19.816;2022-09-17T05:54:51;10.79;79.63
36244;DHT22;22284;49.956;19.816;2022-09-17T05:57:53;10.86;79.64
36244;DHT22;22284;49.956;19.816;2022-09-17T06:00:54;10.91;79.71
36244;DHT22;22284;49.956;19.816;2022-09-17T06:03:55;10.97;79.82
36244;DHT22;22284;49.956;19.816;2022-09-17T06:06:56;11.03;79.91
36244;DHT22;22284;49.956;19.816;2022-09-17T06:09:57;11.08;79.98
36244;DHT22;22284;49.956;19.816;2022-09-17T06:12:58;11.15;80.05
36244;DHT22;22284;49.956;19.816;2022-09-17T06:16:01;11.25;79.98
36244;DHT22;22284;49.956;19.816;2022-09-17T06:19:03;11.31;79.97
36244;DHT22;22284;49.956;19.816;2022-09-17T06:22:04;11.35;80.16
36244;DHT22;22284;49.956;19.816;2022-09-17T06:25:06;11.43;80.24
36244;DHT22;22284;49.956;19.816;2022-09-17T06:28:08;11.51;80.43
36244;DHT22;22284;49.956;19.816;2022-09-17T06:31:11;11.63;80.60
36244;DHT22;22284;49.956;19.816;2022-09-17T06:34:12;11.76;80.99
36244;DHT22;22284;49.956;19.816;2022-09-17T06:37:13;11.86;81.23
36244;DHT22;22284;49.956;19.816;2022-09-17T06:40:15;11.98;81.12
36244;DHT22;22284;49.956;19.816;2022-09-17T06:43:16;12.11;81.09
36244;DHT22;22284;49.956;19.816;2022-09-17T06:46:17;12.20;81.10
36244;DHT22;22284;49.956;19.816;2022-09-17T06:49:18;12.29;81.10
36244;DHT22;22284;49.956;19.816;2022-09-17T06:52:19;12.39;81.03
36244;DHT22;22284;49.956;19.816;2022-09-17T06:55:20;12.49;81.09
36244;DHT22;22284;49.956;19.816;2022-09-17T06:58:21;12.59;80.90
36244;DHT22;22284;49.956;19.816;2022-09-17T07:01:22;12.66;80.94
36244;DHT22;22284;49.956;19.816;2022-09-17T07:04:23;12.70;81.03
36244;DHT22;22284;49.956;19.816;2022-09-17T07:07:24;12.78;80.96
36244;DHT22;22284;49.956;19.816;2022-09-17T07:10:25;12.90;80.85
36244;DHT22;22284;49.956;19.816;2022-09-17T07:13:26;12.97;80.65
36244;DHT22;22284;49.956;19.816;2022-09-17T07:16:28;13.10;80.51
36244;DHT22;22284;49.956;19.816;2022-09-17T07:19:30;13.17;80.30
36244;DHT22;22284;49.956;19.816;2022-09-17T07:22:32;13.26;80.10
36244;DHT22;22284;49.956;19.816;2022-09-17T07:25:33;13.38;79.83
36244;DHT22;22284;49.956;19.816;2022-09-17T07:28:34;13.50;79.64
36244;DHT22;22284;49.956;19.816;2022-09-17T07:31:37;13.63;79.41
36244;DHT22;22284;49.956;19.816;2022-09-17T07:34:38;13.67;79.07
36244;DHT22;22284;49.956;19.816;2022-09-17T07:37:39;13.70;78.74
36244;DHT22;22284;49.956;19.816;2022-09-17T07:40:41;13.81;78.74
36244;DHT22;22284;49.956;19.816;2022-09-17T07:43:43;13.84;78.27
36244;DHT22;22284;49.956;19.816;2022-09-17T07:46:44;13.88;76.70
36244;DHT22;22284;49.956;19.816;2022-09-17T07:49:45;13.91;76.59
36244;DHT22;22284;49.956;19.816;2022-09-17T07:52:47;13.97;76.47
36244;DHT22;22284;49.956;19.816;2022-09-17T07:55:57;14.04;76.04
36244;DHT22;22284;49.956;19.816;2022-09-17T07:58:59;14.08;76.17
36244;DHT22;22284;49.956;19.816;2022-09-17T08:02:01;14.13;75.68
36244;DHT22;22284;49.956;19.816;2022-09-17T08:05:04;14.18;75.81
36244;DHT22;22284;49.956;19.816;2022-09-17T08:08:05;14.21;75.17
36244;DHT22;22284;49.956;19.816;2022-09-17T08:11:10;14.21;74.87
36244;DHT22;22284;49.956;19.816;2022-09-17T08:14:14;14.25;74.94
36244;DHT22;22284;49.956;19.816;2022-09-17T08:17:15;14.28;74.22
36244;DHT22;22284;49.956;19.816;2022-09-17T08:20:17;14.26;73.74
36244;DHT22;22284;49.956;19.816;2022-09-17T08:23:19;14.28;73.24
36244;DHT22;22284;49.956;19.816;2022-09-17T08:26:21;14.29;72.94
36244;DHT22;22284;49.956;19.816;2022-09-17T08:29:23;14.32;72.44
36244;DHT22;22284;49.956;19.816;2022-09-17T08:32:25;14.36;72.11
36244;DHT22;22284;49.956;19.816;2022-09-17T08:35:26;14.39;71.54
36244;DHT22;22284;49.956;19.816;2022-09-17T08:38:30;14.44;71.23
36244;DHT22;22284;49.956;19.816;2022-09-17T08:41:49;14.47;70.43
36244;DHT22;22284;49.956;19.816;2022-09-17T08:44:50;14.52;70.17
36244;DHT22;22284;49.956;19.816;2022-09-17T08:48:02;14.57;70.34
36244;DHT22;22284;49.956;19.816;2022-09-17T08:54:28;14.71;69.14
36244;DHT22;22284;49.956;19.816;2022-09-17T09:01:33;14.71;68.26
36244;DHT22;22284;49.956;19.816;2022-09-17T09:08:25;14.73;67.28
36244;DHT22;22284;49.956;19.816;2022-09-17T09:11:27;14.78;67.42
36244;DHT22;22284;49.956;19.816;2022-09-17T09:14:45;14.77;67.07
36244;DHT22;22284;49.956;19.816;2022-09-17T09:17:45;14.75;66.38
36244;DHT22;22284;49.956;19.816;2022-09-17T09:20:52;14.80;67.26
36244;DHT22;22284;49.956;19.816;2022-09-17T09:27:31;14.85;67.46
36244;DHT22;22284;49.956;19.816;2022-09-17T09:34:01;14.94;66.93
36244;DHT22;22284;49.956;19.816;2022-09-17T09:37:26;14.96;66.54
36244;DHT22;22284;49.956;19.816;2022-09-17T09:43:45;14.99;66.00
36244;DHT22;22284;49.956;19.816;2022-09-17T09:50:46;15.08;66.21
36244;DHT22;22284;49.956;19.816;2022-09-17T09:57:52;15.23;65.84
36244;DHT22;22284;49.956;19.816;2022-09-17T10:00:50;15.30;65.48
36244;DHT22;22284;49.956;19.816;2022-09-17T10:03:52;15.42;64.98
36244;DHT22;22284;49.956;19.816;2022-09-17T10:07:08;15.43;65.17
36244;DHT22;22284;49.956;19.816;2022-09-17T10:10:11;15.40;64.81
36244;DHT22;22284;49.956;19.816;2022-09-17T10:13:12;15.46;64.89
36244;DHT22;22284;49.956;19.816;2022-09-17T10:16:24;15.51;64.92
36244;DHT22;22284;49.956;19.816;2022-09-17T10:19:26;15.60;65.35
36244;DHT22;22284;49.956;19.816;2022-09-17T10:22:33;15.67;64.91
36244;DHT22;22284;49.956;19.816;2022-09-17T10:25:40;15.73;64.81
36244;DHT22;22284;49.956;19.816;2022-09-17T10:28:50;15.73;63.43
36244;DHT22;22284;49.956;19.816;2022-09-17T10:31:55;15.71;63.66
36244;DHT22;22284;49.956;19.816;2022-09-17T10:38:25;15.67;63.22
36244;DHT22;22284;49.956;19.816;2022-09-17T10:41:16;15.68;63.59
36244;DHT22;22284;49.956;19.816;2022-09-17T10:44:22;15.70;63.93
36244;DHT22;22284;49.956;19.816;2022-09-17T10:47:30;15.80;64.06
36244;DHT22;22284;49.956;19.816;2022-09-17T10:50:33;15.81;63.82
36244;DHT22;22284;49.956;19.816;2022-09-17T10:54:03;15.88;63.80
36244;DHT22;22284;49.956;19.816;2022-09-17T10:57:05;15.95;63.36
36244;DHT22;22284;49.956;19.816;2022-09-17T11:00:19;16.02;62.88
36244;DHT22;22284;49.956;19.816;2022-09-17T11:04:02;16.09;62.87
36244;DHT22;22284;49.956;19.816;2022-09-17T11:10:37;16.23;62.60
36244;DHT22;22284;49.956;19.816;2022-09-17T11:14:19;16.25;62.56
36244;DHT22;22284;49.956;19.816;2022-09-17T11:21:20;16.39;61.47
36244;DHT22;22284;49.956;19.816;2022-09-17T11:28:15;16.37;60.09
36244;DHT22;22284;49.956;19.816;2022-09-17T11:34:44;16.25;59.84
36244;DHT22;22284;49.956;19.816;2022-09-17T11:41:30;16.27;60.02
36244;DHT22;22284;49.956;19.816;2022-09-17T11:44:37;16.25;59.49
36244;DHT22;22284;49.956;19.816;2022-09-17T11:47:40;16.16;59.33
36244;DHT22;22284;49.956;19.816;2022-09-17T11:50:57;16.16;59.57
36244;DHT22;22284;49.956;19.816;2022-09-17T11:54:21;16.16;60.02
36244;DHT22;22284;49.956;19.816;2022-09-17T11:57:38;16.16;60.06
36244;DHT22;22284;49.956;19.816;2022-09-17T12:00:45;16.09;60.18
36244;DHT22;22284;49.956;19.816;2022-09-17T12:03:59;15.98;60.50
36244;DHT22;22284;49.956;19.816;2022-09-17T12:07:23;15.95;61.14
36244;DHT22;22284;49.956;19.816;2022-09-17T12:10:37;15.89;61.30
36244;DHT22;22284;49.956;19.816;2022-09-17T12:13:51;15.85;61.69
36244;DHT22;22284;49.956;19.816;2022-09-17T12:16:58;15.85;61.55
36244;DHT22;22284;49.956;19.816;2022-09-17T12:23:50;15.71;61.46
36244;DHT22;22284;49.956;19.816;2022-09-17T12:27:08;15.68;61.82
36244;DHT22;22284;49.956;19.816;2022-09-17T12:30:18;15.65;62.19
36244;DHT22;22284;49.956;19.816;2022-09-17T12:33:33;15.63;62.24
36244;DHT22;22284;49.956;19.816;2022-09-17T12:36:40;15.63;62.46
36244;DHT22;22284;49.956;19.816;2022-09-17T12:43:30;15.60;62.66
36244;DHT22;22284;49.956;19.816;2022-09-17T12:54:08;15.45;62.58
36244;DHT22;22284;49.956;19.816;2022-09-17T12:57:41;15.39;62.50
36244;DHT22;22284;49.956;19.816;2022-09-17T13:00:49;15.32;62.63
36244;DHT22;22284;49.956;19.816;2022-09-17T13:21:53;15.22;64.34
36244;DHT22;22284;49.956;19.816;2022-09-17T13:25:08;15.26;64.48
36244;DHT22;22284;49.956;19.816;2022-09-17T13:28:10;15.25;64.70
36244;DHT22;22284;49.956;19.816;2022-09-17T13:31:12;15.26;64.96
36244;DHT22;22284;49.956;19.816;2022-09-17T13:34:25;15.29;65.17
36244;DHT22;22284;49.956;19.816;2022-09-17T13:37:28;15.30;65.23
36244;DHT22;22284;49.956;19.816;2022-09-17T13:40:33;15.35;65.12
36244;DHT22;22284;49.956;19.816;2022-09-17T13:43:43;15.32;64.93
36244;DHT22;22284;49.956;19.816;2022-09-17T13:46:44;15.26;64.51
36244;DHT22;22284;49.956;19.816;2022-09-17T13:49:58;15.20;64.68
36244;DHT22;22284;49.956;19.816;2022-09-17T13:56:35;15.18;65.19
36244;DHT22;22284;49.956;19.816;2022-09-17T13:59:39;15.23;65.41
36244;DHT22;22284;49.956;19.816;2022-09-17T14:02:41;15.25;65.55
36244;DHT22;22284;49.956;19.816;2022-09-17T14:05:42;15.23;65.51
36244;DHT22;22284;49.956;19.816;2022-09-17T14:08:47;15.19;65.69
36244;DHT22;22284;49.956;19.816;2022-09-17T14:11:58;15.16;65.85
36244;DHT22;22284;49.956;19.816;2022-09-17T14:14:59;15.12;66.01
36244;DHT22;22284;49.956;19.816;2022-09-17T14:18:00;15.11;66.11
36244;DHT22;22284;49.956;19.816;2022-09-17T14:28:00;15.09;66.49
36244;DHT22;22284;49.956;19.816;2022-09-17T14:31:00;15.01;66.87
36244;DHT22;22284;49.956;19.816;2022-09-17T14:34:04;14.94;67.24
36244;DHT22;22284;49.956;19.816;2022-09-17T14:37:11;14.88;67.41
36244;DHT22;22284;49.956;19.816;2022-09-17T14:40:18;14.81;67.62
36244;DHT22;22284;49.956;19.816;2022-09-17T14:43:56;14.81;67.84
36244;DHT22;22284;49.956;19.816;2022-09-17T14:47:07;14.80;68.06
36244;DHT22;22284;49.956;19.816;2022-09-17T14:50:24;14.78;68.43
36244;DHT22;22284;49.956;19.816;2022-09-17T14:53:26;14.78;68.74
36244;DHT22;22284;49.956;19.816;2022-09-17T14:56:27;14.75;69.05
36244;DHT22;22284;49.956;19.816;2022-09-17T14:59:49;14.70;68.98
36244;DHT22;22284;49.956;19.816;2022-09-17T15:02:54;14.64;69.25
36244;DHT22;22284;49.956;19.816;2022-09-17T15:05:55;14.56;69.37
36244;DHT22;22284;49.956;19.816;2022-09-17T15:08:57;14.52;69.41
36244;DHT22;22284;49.956;19.816;2022-09-17T15:11:59;14.44;69.42
36244;DHT22;22284;49.956;19.816;2022-09-17T15:15:00;14.43;69.66
36244;DHT22;22284;49.956;19.816;2022-09-17T15:18:03;14.36;69.83
36244;DHT22;22284;49.956;19.816;2022-09-17T15:24:56;14.29;70.26
36244;DHT22;22284;49.956;19.816;2022-09-17T15:28:04;14.28;70.57
36244;DHT22;22284;49.956;19.816;2022-09-17T15:31:19;14.26;70.66
36244;DHT22;22284;49.956;19.816;2022-09-17T15:34:12;14.26;70.88
36244;DHT22;22284;49.956;19.816;2022-09-17T15:37:24;14.28;71.09
36244;DHT22;22284;49.956;19.816;2022-09-17T15:40:38;14.32;71.11
36244;DHT22;22284;49.956;19.816;2022-09-17T15:43:43;14.30;71.15
36244;DHT22;22284;49.956;19.816;2022-09-17T15:46:46;14.30;71.34
36244;DHT22;22284;49.956;19.816;2022-09-17T15:50:09;14.33;71.45
36244;DHT22;22284;49.956;19.816;2022-09-17T15:53:12;14.37;71.43
36244;DHT22;22284;49.956;19.816;2022-09-17T15:56:19;14.35;71.44
36244;DHT22;22284;49.956;19.816;2022-09-17T15:59:31;14.33;71.56
36244;DHT22;22284;49.956;19.816;2022-09-17T16:02:33;14.37;71.57
36244;DHT22;22284;49.956;19.816;2022-09-17T16:05:45;14.36;71.73
36244;DHT22;22284;49.956;19.816;2022-09-17T16:08:49;14.37;71.86
36244;DHT22;22284;49.956;19.816;2022-09-17T16:11:51;14.36;71.69
36244;DHT22;22284;49.956;19.816;2022-09-17T16:14:54;14.32;71.80
36244;DHT22;22284;49.956;19.816;2022-09-17T16:17:56;14.29;72.00
36244;DHT22;22284;49.956;19.816;2022-09-17T16:20:57;14.29;72.30
36244;DHT22;22284;49.956;19.816;2022-09-17T16:23:58;14.28;72.40
36244;DHT22;22284;49.956;19.816;2022-09-17T16:26:59;14.25;72.40
36244;DHT22;22284;49.956;19.816;2022-09-17T16:30:06;14.23;72.66
36244;DHT22;22284;49.956;19.816;2022-09-17T16:33:12;14.16;72.53
36244;DHT22;22284;49.956;19.816;2022-09-17T16:36:17;14.13;72.77
36244;DHT22;22284;49.956;19.816;2022-09-17T16:39:18;14.07;72.97
36244;DHT22;22284;49.956;19.816;2022-09-17T16:42:19;14.02;73.06
36244;DHT22;22284;49.956;19.816;2022-09-17T16:45:20;13.97;72.80
36244;DHT22;22284;49.956;19.816;2022-09-17T16:48:21;13.88;72.69
36244;DHT22;22284;49.956;19.816;2022-09-17T16:51:22;13.88;72.55
36244;DHT22;22284;49.956;19.816;2022-09-17T16:54:23;13.85;72.63
36244;DHT22;22284;49.956;19.816;2022-09-17T16:57:25;13.85;72.77
36244;DHT22;22284;49.956;19.816;2022-09-17T17:00:26;13.84;72.85
36244;DHT22;22284;49.956;19.816;2022-09-17T17:03:28;13.81;72.74
36244;DHT22;22284;49.956;19.816;2022-09-17T17:06:29;13.81;72.60
36244;DHT22;22284;49.956;19.816;2022-09-17T17:09:30;13.77;72.37
36244;DHT22;22284;49.956;19.816;2022-09-17T17:12:31;13.76;72.34
36244;DHT22;22284;49.956;19.816;2022-09-17T17:15:32;13.73;72.35
36244;DHT22;22284;49.956;19.816;2022-09-17T17:18:33;13.72;72.36
36244;DHT22;22284;49.956;19.816;2022-09-17T17:21:35;13.70;72.34
36244;DHT22;22284;49.956;19.816;2022-09-17T17:24:36;13.64;72.40
36244;DHT22;22284;49.956;19.816;2022-09-17T17:27:37;13.61;72.56
36244;DHT22;22284;49.956;19.816;2022-09-17T17:30:38;13.60;72.70
36244;DHT22;22284;49.956;19.816;2022-09-17T17:33:39;13.61;72.85
36244;DHT22;22284;49.956;19.816;2022-09-17T17:36:40;13.59;72.90
36244;DHT22;22284;49.956;19.816;2022-09-17T17:39:41;13.57;72.98
36244;DHT22;22284;49.956;19.816;2022-09-17T17:42:43;13.54;73.17
36244;DHT22;22284;49.956;19.816;2022-09-17T17:45:46;13.51;73.34
36244;DHT22;22284;49.956;19.816;2022-09-17T17:48:49;13.49;73.43
36244;DHT22;22284;49.956;19.816;2022-09-17T17:51:50;13.45;73.51
36244;DHT22;22284;49.956;19.816;2022-09-17T17:54:53;13.42;73.68
36244;DHT22;22284;49.956;19.816;2022-09-17T17:57:55;13.40;73.61
36244;DHT22;22284;49.956;19.816;2022-09-17T18:00:58;13.40;73.78
36244;DHT22;22284;49.956;19.816;2022-09-17T18:04:02;13.38;73.89
36244;DHT22;22284;49.956;19.816;2022-09-17T18:07:03;13.38;73.97
36244;DHT22;22284;49.956;19.816;2022-09-17T18:10:06;13.40;74.07
36244;DHT22;22284;49.956;19.816;2022-09-17T18:13:07;13.40;74.32
36244;DHT22;22284;49.956;19.816;2022-09-17T18:16:12;13.36;74.36
36244;DHT22;22284;49.956;19.816;2022-09-17T18:19:14;13.36;74.54
36244;DHT22;22284;49.956;19.816;2022-09-17T18:22:15;13.36;74.64
36244;DHT22;22284;49.956;19.816;2022-09-17T18:25:16;13.38;74.67
36244;DHT22;22284;49.956;19.816;2022-09-17T18:28:17;13.36;74.73
36244;DHT22;22284;49.956;19.816;2022-09-17T18:31:33;13.35;74.96
36244;DHT22;22284;49.956;19.816;2022-09-17T18:34:34;13.26;74.96
36244;DHT22;22284;49.956;19.816;2022-09-17T18:37:36;13.28;75.14
36244;DHT22;22284;49.956;19.816;2022-09-17T18:40:37;13.26;75.23
36244;DHT22;22284;49.956;19.816;2022-09-17T18:43:38;13.25;75.33
36244;DHT22;22284;49.956;19.816;2022-09-17T18:46:40;13.28;75.46
36244;DHT22;22284;49.956;19.816;2022-09-17T18:49:42;13.26;75.63
36244;DHT22;22284;49.956;19.816;2022-09-17T18:52:43;13.28;75.67
36244;DHT22;22284;49.956;19.816;2022-09-17T18:55:47;13.31;75.89
36244;DHT22;22284;49.956;19.816;2022-09-17T18:58:51;13.31;75.95
36244;DHT22;22284;49.956;19.816;2022-09-17T19:01:52;13.31;76.09
36244;DHT22;22284;49.956;19.816;2022-09-17T19:04:53;13.29;76.21
36244;DHT22;22284;49.956;19.816;2022-09-17T19:07:54;13.31;76.28
36244;DHT22;22284;49.956;19.816;2022-09-17T19:10:56;13.31;76.41
36244;DHT22;22284;49.956;19.816;2022-09-17T19:13:59;13.32;76.67
36244;DHT22;22284;49.956;19.816;2022-09-17T19:17:01;13.32;76.38
36244;DHT22;22284;49.956;19.816;2022-09-17T19:20:03;13.32;76.50
36244;DHT22;22284;49.956;19.816;2022-09-17T19:23:05;13.29;76.59
36244;DHT22;22284;49.956;19.816;2022-09-17T19:26:09;13.29;76.79
36244;DHT22;22284;49.956;19.816;2022-09-17T19:29:11;13.26;76.91
36244;DHT22;22284;49.956;19.816;2022-09-17T19:32:12;13.22;76.97
36244;DHT22;22284;49.956;19.816;2022-09-17T19:35:14;13.22;76.98
36244;DHT22;22284;49.956;19.816;2022-09-17T19:38:16;13.21;77.14
36244;DHT22;22284;49.956;19.816;2022-09-17T19:41:19;13.22;77.24
36244;DHT22;22284;49.956;19.816;2022-09-17T19:44:24;13.22;77.03
36244;DHT22;22284;49.956;19.816;2022-09-17T19:47:25;13.21;77.10
36244;DHT22;22284;49.956;19.816;2022-09-17T19:50:28;13.15;77.06
36244;DHT22;22284;49.956;19.816;2022-09-17T19:53:31;13.17;77.22
36244;DHT22;22284;49.956;19.816;2022-09-17T19:56:32;13.15;77.28
36244;DHT22;22284;49.956;19.816;2022-09-17T19:59:33;13.12;77.14
36244;DHT22;22284;49.956;19.816;2022-09-17T20:02:34;13.10;77.14
36244;DHT22;22284;49.956;19.816;2022-09-17T20:05:35;13.05;77.20
36244;DHT22;22284;49.956;19.816;2022-09-17T20:08:49;13.04;77.40
36244;DHT22;22284;49.956;19.816;2022-09-17T20:11:50;12.98;77.34
36244;DHT22;22284;49.956;19.816;2022-09-17T20:14:52;12.94;77.43
36244;DHT22;22284;49.956;19.816;2022-09-17T20:17:53;12.94;77.38
36244;DHT22;22284;49.956;19.816;2022-09-17T20:20:54;12.94;77.62
36244;DHT22;22284;49.956;19.816;2022-09-17T20:23:56;12.94;77.59
36244;DHT22;22284;49.956;19.816;2022-09-17T20:26:57;12.95;77.56
36244;DHT22;22284;49.956;19.816;2022-09-17T20:29:58;12.97;77.50
36244;DHT22;22284;49.956;19.816;2022-09-17T20:32:59;12.91;77.52
36244;DHT22;22284;49.956;19.816;2022-09-17T20:36:04;12.93;77.54
36244;DHT22;22284;49.956;19.816;2022-09-17T20:39:06;12.91;77.48
36244;DHT22;22284;49.956;19.816;2022-09-17T20:42:07;12.88;77.62
36244;DHT22;22284;49.956;19.816;2022-09-17T20:45:09;12.88;77.64
36244;DHT22;22284;49.956;19.816;2022-09-17T20:48:10;12.86;77.55
36244;DHT22;22284;49.956;19.816;2022-09-17T20:51:15;12.83;77.56
36244;DHT22;22284;49.956;19.816;2022-09-17T20:54:16;12.80;77.68
36244;DHT22;22284;49.956;19.816;2022-09-17T20:57:17;12.81;77.75
36244;DHT22;22284;49.956;19.816;2022-09-17T21:00:18;12.81;77.75
36244;DHT22;22284;49.956;19.816;2022-09-17T21:03:21;12.80;77.97
36244;DHT22;22284;49.956;19.816;2022-09-17T21:06:25;12.77;78.04
36244;DHT22;22284;49.956;19.816;2022-09-17T21:09:27;12.74;78.11
36244;DHT22;22284;49.956;19.816;2022-09-17T21:12:28;12.76;78.22
36244;DHT22;22284;49.956;19.816;2022-09-17T21:15:29;12.70;78.26